Time;durP1;ratioP1;P1;durP2;ratioP2;P2;SDS_P1;SDS_P2;PMS_P1;PMS_P2;Temp;Humidity;BMP_temperature;BMP_pressure;BME280_temperature;BME280_humidity;BME280_pressure;Samples;Min_cycle;Max_cycle;Signal;HPM_P1;HPM_P2
2021/01/14 00:02:17;;;;;;;7.05;2.17;;;;;;;;;;5094954;28;20035;-76
2021/01/14 00:04:44;;;;;;;21.60;2.55;;;;;;;;;;5096233;28;20392;-76
2021/01/14 00:07:10;;;;;;;13.73;1.85;;;;;;;;;;5096416;28;20123;-76
2021/01/14 00:09:45;;;;;;;9.73;2.35;;;;;;;;;;5095821;28;20098;-76
2021/01/14 00:12:11;;;;;;;10.60;2.60;;;;;;;;;;5096166;28;20115;-76
2021/01/14 00:14:36;;;;;;;10.35;1.65;;;;;;;;;;5096028;28;20116;-76
2021/01/14 00:17:02;;;;;;;9.48;2.00;;;;;;;;;;5096157;28;20130;-76
2021/01/14 00:19:27;;;;;;;12.52;1.50;;;;;;;;;;5095998;28;20028;-76
2021/01/14 00:21:53;;;;;;;13.00;2.30;;;;;;;;;;5096123;28;20074;-76
2021/01/14 00:24:18;;;;;;;5.95;1.58;;;;;;;;;;5094460;28;20032;-76
2021/01/14 00:26:45;;;;;;;7.22;1.50;;;;;;;;;;5095986;28;20032;-76
2021/01/14 00:29:11;;;;;;;15.00;3.60;;;;;;;;;;5095805;28;20032;-76
2021/01/14 00:31:37;;;;;;;14.85;2.35;;;;;;;;;;5095882;28;20061;-76
2021/01/14 00:34:02;;;;;;;6.30;1.60;;;;;;;;;;5095835;28;20377;-76
2021/01/14 00:36:32;;;;;;;8.23;2.10;;;;;;;;;;5095619;28;20120;-76
2021/01/14 00:38:59;;;;;;;5.22;1.60;;;;;;;;;;5094252;28;20036;-76
2021/01/14 00:41:25;;;;;;;12.30;1.77;;;;;;;;;;5095569;28;20473;-76
2021/01/14 00:43:50;;;;;;;7.72;1.80;;;;;;;;;;5095360;28;20044;-77
2021/01/14 00:46:20;;;;;;;8.88;2.45;;;;;;;;;;5095682;28;20089;-76
2021/01/14 00:48:45;;;;;;;6.13;1.90;;;;;;;;;;5094146;28;20071;-77
2021/01/14 00:51:11;;;;;;;4.82;1.58;;;;;;;;;;5095143;28;20430;-77
2021/01/14 00:53:38;;;;;;;6.30;1.52;;;;;;;;;;5095070;28;20036;-77
2021/01/14 00:56:04;;;;;;;9.15;2.13;;;;;;;;;;5095541;28;20032;-76
2021/01/14 00:58:29;;;;;;;6.28;1.65;;;;;;;;;;5095193;28;20043;-76
2021/01/14 01:00:54;;;;;;;3.55;1.75;;;;;;;;;;5094904;28;20103;-76
2021/01/14 01:03:20;;;;;;;8.32;1.55;;;;;;;;;;5094032;28;20031;-76
2021/01/14 01:05:45;;;;;;;10.38;2.25;;;;;;;;;;5094935;28;20436;-76
2021/01/14 01:08:10;;;;;;;7.50;1.80;;;;;;;;;;5095194;28;20036;-77
2021/01/14 01:10:36;;;;;;;11.35;1.77;;;;;;;;;;5095726;28;20063;-77
2021/01/14 01:13:01;;;;;;;7.15;1.70;;;;;;;;;;5095060;28;20251;-77
2021/01/14 01:15:27;;;;;;;7.63;2.15;;;;;;;;;;5094666;28;20036;-76
2021/01/14 01:17:53;;;;;;;12.68;1.88;;;;;;;;;;5094870;28;20057;-76
2021/01/14 01:20:19;;;;;;;6.53;1.67;;;;;;;;;;5094621;28;20119;-77
2021/01/14 01:22:44;;;;;;;5.07;1.42;;;;;;;;;;5095122;28;20118;-77
2021/01/14 01:25:10;;;;;;;9.85;1.83;;;;;;;;;;5094671;28;20032;-77
2021/01/14 01:27:37;;;;;;;10.32;2.60;;;;;;;;;;5094842;28;20403;-77
2021/01/14 01:30:03;;;;;;;10.25;2.33;;;;;;;;;;5094324;28;20477;-77
2021/01/14 01:32:29;;;;;;;11.18;1.90;;;;;;;;;;5093170;28;20036;-77
2021/01/14 01:34:54;;;;;;;8.45;2.47;;;;;;;;;;5094553;28;20433;-77
2021/01/14 01:37:22;;;;;;;8.32;1.65;;;;;;;;;;5094409;28;20351;-77
2021/01/14 01:39:47;;;;;;;7.18;1.73;;;;;;;;;;5094301;28;20028;-77
2021/01/14 01:42:13;;;;;;;4.35;1.60;;;;;;;;;;5094454;28;20046;-77
2021/01/14 01:44:39;;;;;;;7.32;2.40;;;;;;;;;;5094513;28;20056;-77
2021/01/14 01:47:05;;;;;;;11.82;2.05;;;;;;;;;;5094226;28;20474;-77
2021/01/14 01:49:34;;;;;;;6.70;1.95;;;;;;;;;;5094147;28;20462;-77
2021/01/14 01:52:03;;;;;;;9.27;1.67;;;;;;;;;;5094429;28;20036;-77
2021/01/14 01:54:31;;;;;;;7.05;1.67;;;;;;;;;;5093995;28;20031;-77
2021/01/14 01:56:57;;;;;;;7.80;1.52;;;;;;;;;;5094294;28;20062;-77
2021/01/14 01:59:23;;;;;;;16.90;2.17;;;;;;;;;;5094185;28;20369;-77
2021/01/14 02:01:49;;;;;;;4.93;1.52;;;;;;;;;;5094227;28;20085;-77
2021/01/14 02:04:14;;;;;;;6.00;2.10;;;;;;;;;;5092134;28;20401;-77
2021/01/14 02:06:52;;;;;;;7.63;1.77;;;;;;;;;;5094126;28;20036;-77
2021/01/14 02:09:21;;;;;;;8.70;1.90;;;;;;;;;;5093648;28;20040;-77
2021/01/14 02:11:50;;;;;;;9.15;1.90;;;;;;;;;;5093798;28;20071;-77
2021/01/14 02:14:19;;;;;;;6.93;2.17;;;;;;;;;;5093960;28;20031;-77
2021/01/14 02:16:46;;;;;;;8.77;1.77;;;;;;;;;;5094047;28;20075;-77
2021/01/14 02:19:22;;;;;;;11.68;2.13;;;;;;;;;;5094079;28;20028;-78
2021/01/14 02:21:53;;;;;;;9.70;2.25;;;;;;;;;;5092887;28;20044;-77
2021/01/14 02:24:57;;;;;;;9.02;1.80;;;;;;;;;;5093398;28;20032;-77
2021/01/14 02:27:23;;;;;;;9.13;1.70;;;;;;;;;;5093761;28;20040;-77
2021/01/14 02:29:50;;;;;;;8.38;1.88;;;;;;;;;;5093480;28;20036;-77
2021/01/14 02:32:17;;;;;;;3.85;1.67;;;;;;;;;;5093829;28;20397;-77
2021/01/14 02:34:43;;;;;;;5.72;1.50;;;;;;;;;;5093210;28;20040;-77
2021/01/14 02:37:09;;;;;;;11.80;1.67;;;;;;;;;;5093714;28;20031;-77
2021/01/14 02:39:36;;;;;;;6.80;1.98;;;;;;;;;;5093206;28;20036;-77
2021/01/14 02:42:01;;;;;;;4.63;1.70;;;;;;;;;;5093302;28;20040;-77
2021/01/14 02:44:26;;;;;;;5.10;1.90;;;;;;;;;;5093291;28;20043;-77
2021/01/14 02:46:52;;;;;;;4.32;1.30;;;;;;;;;;5093571;28;20480;-77
2021/01/14 02:49:18;;;;;;;9.60;2.42;;;;;;;;;;5093268;28;20074;-76
2021/01/14 02:51:47;;;;;;;5.57;1.50;;;;;;;;;;5093295;28;20035;-77
2021/01/14 02:54:14;;;;;;;9.05;2.83;;;;;;;;;;5093236;28;20039;-77
2021/01/14 02:56:40;;;;;;;13.27;1.80;;;;;;;;;;5093320;28;20485;-77
2021/01/14 02:59:06;;;;;;;2.88;1.45;;;;;;;;;;5093268;28;20035;-77
2021/01/14 03:01:32;;;;;;;5.43;1.50;;;;;;;;;;5093477;28;20535;-77
2021/01/14 03:03:57;;;;;;;2.80;1.25;;;;;;;;;;5093209;28;20061;-77
2021/01/14 03:06:23;;;;;;;9.50;2.55;;;;;;;;;;5093312;28;20028;-76
2021/01/14 03:08:48;;;;;;;3.78;1.58;;;;;;;;;;5093126;28;20039;-77
2021/01/14 03:11:14;;;;;;;4.65;1.50;;;;;;;;;;5093260;28;20104;-76
2021/01/14 03:13:39;;;;;;;4.57;1.63;;;;;;;;;;5093039;28;20036;-77
2021/01/14 03:16:08;;;;;;;6.65;1.88;;;;;;;;;;5095816;28;20039;-78
2021/01/14 03:18:33;;;;;;;7.00;1.65;;;;;;;;;;5098321;28;20055;-77
2021/01/14 03:20:59;;;;;;;7.68;2.13;;;;;;;;;;5097575;28;20474;-77
2021/01/14 03:23:24;;;;;;;9.93;1.63;;;;;;;;;;5099174;28;20117;-77
2021/01/14 03:25:50;;;;;;;4.47;1.40;;;;;;;;;;5098967;28;20036;-78
2021/01/14 03:28:15;;;;;;;7.10;1.65;;;;;;;;;;5099910;28;20043;-79
2021/01/14 03:30:40;;;;;;;7.03;2.00;;;;;;;;;;5099808;28;20036;-78
2021/01/14 03:33:06;;;;;;;5.97;1.77;;;;;;;;;;5098749;28;20377;-78
2021/01/14 03:35:31;;;;;;;5.53;1.67;;;;;;;;;;5098413;28;20157;-78
2021/01/14 03:37:57;;;;;;;5.05;1.48;;;;;;;;;;5099670;28;20524;-78
2021/01/14 03:40:22;;;;;;;9.43;2.10;;;;;;;;;;5098542;28;20032;-78
2021/01/14 03:42:48;;;;;;;7.28;1.77;;;;;;;;;;5098388;28;20436;-77
2021/01/14 03:45:13;;;;;;;4.25;1.70;;;;;;;;;;5095917;28;20044;-77
2021/01/14 03:47:39;;;;;;;4.18;1.75;;;;;;;;;;5098744;28;20032;-77
2021/01/14 03:50:06;;;;;;;9.32;1.70;;;;;;;;;;5100931;28;20474;-80
2021/01/14 03:52:31;;;;;;;4.63;1.48;;;;;;;;;;5097154;28;20043;-77
2021/01/14 03:54:56;;;;;;;8.95;1.92;;;;;;;;;;5094910;28;20042;-77
2021/01/14 03:57:22;;;;;;;6.65;1.70;;;;;;;;;;5096429;28;20039;-76
2021/01/14 03:59:47;;;;;;;9.77;2.53;;;;;;;;;;5096703;28;20031;-78
2021/01/14 04:02:13;;;;;;;8.95;2.47;;;;;;;;;;5097721;28;20039;-77
2021/01/14 04:04:40;;;;;;;5.35;1.92;;;;;;;;;;5096875;28;20043;-76
2021/01/14 04:07:13;;;;;;;6.68;2.35;;;;;;;;;;5095108;28;20115;-76
2021/01/14 04:09:39;;;;;;;7.07;1.80;;;;;;;;;;5095833;28;20081;-76
2021/01/14 04:12:05;;;;;;;6.78;1.60;;;;;;;;;;5096210;28;20039;-76
2021/01/14 04:14:31;;;;;;;4.80;1.42;;;;;;;;;;5096193;28;20047;-76
2021/01/14 04:16:57;;;;;;;5.32;1.58;;;;;;;;;;5095999;28;20042;-76
2021/01/14 04:19:23;;;;;;;4.18;1.83;;;;;;;;;;5096000;28;20032;-76
2021/01/14 04:21:48;;;;;;;2.97;1.40;;;;;;;;;;5096031;28;20036;-76
2021/01/14 04:24:14;;;;;;;6.65;2.85;;;;;;;;;;5095935;28;20487;-76
2021/01/14 04:26:39;;;;;;;6.63;2.00;;;;;;;;;;5094898;28;20047;-76
2021/01/14 04:29:05;;;;;;;5.88;1.80;;;;;;;;;;5095800;28;20043;-76
2021/01/14 04:31:31;;;;;;;6.75;1.85;;;;;;;;;;5095857;28;20032;-76
2021/01/14 04:33:57;;;;;;;6.22;2.22;;;;;;;;;;5095854;28;20036;-76
2021/01/14 04:36:22;;;;;;;4.13;1.60;;;;;;;;;;5095854;28;20104;-76
2021/01/14 04:38:48;;;;;;;6.30;2.40;;;;;;;;;;5095722;28;20032;-76
2021/01/14 04:41:17;;;;;;;5.88;1.80;;;;;;;;;;5095407;28;20061;-76
2021/01/14 04:43:42;;;;;;;6.72;1.85;;;;;;;;;;5095485;28;20040;-76
2021/01/14 04:46:11;;;;;;;6.88;1.42;;;;;;;;;;5094331;28;20043;-76
2021/01/14 04:48:39;;;;;;;7.15;2.00;;;;;;;;;;5095459;28;20043;-76
2021/01/14 04:51:07;;;;;;;5.35;1.67;;;;;;;;;;5095361;28;20071;-76
2021/01/14 04:53:38;;;;;;;7.18;2.22;;;;;;;;;;5095459;28;20044;-76
2021/01/14 04:56:06;;;;;;;9.75;3.28;;;;;;;;;;5093897;28;20028;-76
2021/01/14 04:58:34;;;;;;;6.10;1.95;;;;;;;;;;5095374;28;20044;-77
2021/01/14 05:01:04;;;;;;;9.80;2.17;;;;;;;;;;5094063;28;20024;-76
2021/01/14 05:03:33;;;;;;;7.25;2.38;;;;;;;;;;5095275;28;20036;-76
2021/01/14 05:05:59;;;;;;;3.95;1.92;;;;;;;;;;5095215;28;20077;-76
2021/01/14 05:08:33;;;;;;;10.82;2.58;;;;;;;;;;5095135;28;20108;-76
2021/01/14 05:11:00;;;;;;;7.85;2.42;;;;;;;;;;5094726;28;20374;-76
2021/01/14 05:13:29;;;;;;;5.85;2.00;;;;;;;;;;5094790;28;20031;-76
2021/01/14 05:15:55;;;;;;;3.22;1.77;;;;;;;;;;5095044;28;20131;-76
2021/01/14 05:18:21;;;;;;;3.83;1.85;;;;;;;;;;5095037;28;20062;-76
2021/01/14 05:20:46;;;;;;;8.68;2.05;;;;;;;;;;5094810;28;20032;-76
2021/01/14 05:23:13;;;;;;;3.85;1.50;;;;;;;;;;5094990;28;20125;-76
2021/01/14 05:25:51;;;;;;;17.77;4.22;;;;;;;;;;5094477;28;20032;-76
2021/01/14 05:28:17;;;;;;;9.35;2.13;;;;;;;;;;5093661;28;20032;-76
2021/01/14 05:30:42;;;;;;;5.75;2.00;;;;;;;;;;5094606;28;20127;-76
2021/01/14 05:33:17;;;;;;;5.82;2.10;;;;;;;;;;5093430;28;20474;-76
2021/01/14 05:35:47;;;;;;;5.20;1.83;;;;;;;;;;5094641;28;20112;-76
2021/01/14 05:38:27;;;;;;;5.07;2.20;;;;;;;;;;5093464;28;20118;-76
2021/01/14 05:41:11;;;;;;;4.20;2.08;;;;;;;;;;5094295;28;20063;-76
2021/01/14 05:43:49;;;;;;;8.00;3.03;;;;;;;;;;5094399;28;20044;-76
2021/01/14 05:46:17;;;;;;;6.43;2.58;;;;;;;;;;5094248;28;20105;-76
2021/01/14 05:48:44;;;;;;;5.50;1.70;;;;;;;;;;5094183;28;20054;-76
2021/01/14 05:51:18;;;;;;;6.43;1.80;;;;;;;;;;5092893;28;20040;-76
2021/01/14 05:54:14;;;;;;;9.77;2.17;;;;;;;;;;5092842;28;20036;-76
2021/01/14 05:56:46;;;;;;;5.38;2.38;;;;;;;;;;5077251;28;20497;-76
2021/01/14 05:59:14;;;;;;;4.55;2.10;;;;;;;;;;5094210;28;20085;-76
2021/01/14 06:01:57;;;;;;;3.85;2.17;;;;;;;;;;5091677;28;20039;-76
2021/01/14 06:04:25;;;;;;;5.07;2.00;;;;;;;;;;5093239;28;20039;-76
2021/01/14 06:06:52;;;;;;;5.28;2.65;;;;;;;;;;5094069;28;20105;-76
2021/01/14 06:09:19;;;;;;;7.65;3.08;;;;;;;;;;5093668;28;20131;-76
2021/01/14 06:11:46;;;;;;;5.50;2.15;;;;;;;;;;5094127;28;20453;-77
2021/01/14 06:14:31;;;;;;;6.25;2.50;;;;;;;;;;5092886;28;20489;-76
2021/01/14 06:17:02;;;;;;;5.20;2.55;;;;;;;;;;5093946;28;20032;-76
2021/01/14 06:19:28;;;;;;;6.78;2.40;;;;;;;;;;5092533;28;20118;-76
2021/01/14 06:21:57;;;;;;;7.95;3.00;;;;;;;;;;5093795;28;20121;-76
2021/01/14 06:24:25;;;;;;;10.52;3.10;;;;;;;;;;5092252;28;20188;-76
2021/01/14 06:26:56;;;;;;;9.32;3.20;;;;;;;;;;5093634;28;20389;-76
2021/01/14 06:29:29;;;;;;;7.13;2.67;;;;;;;;;;5092261;28;20478;-76
2021/01/14 06:32:16;;;;;;;5.18;2.53;;;;;;;;;;5092330;28;20378;-76
2021/01/14 06:34:46;;;;;;;5.47;2.80;;;;;;;;;;5093572;28;20039;-76
2021/01/14 06:37:34;;;;;;;5.82;2.85;;;;;;;;;;5093737;28;20032;-76
2021/01/14 06:40:00;;;;;;;8.38;2.70;;;;;;;;;;5092407;28;20501;-76
2021/01/14 06:42:30;;;;;;;4.03;2.75;;;;;;;;;;5092563;28;20028;-76
2021/01/14 06:45:09;;;;;;;7.10;3.47;;;;;;;;;;5093334;28;20082;-76
2021/01/14 06:47:42;;;;;;;6.90;2.50;;;;;;;;;;5093526;28;20075;-76
2021/01/14 06:50:47;;;;;;;6.80;2.85;;;;;;;;;;5091923;28;20105;-76
2021/01/14 06:53:13;;;;;;;8.98;3.05;;;;;;;;;;5041755;28;20059;-76
2021/01/14 06:55:39;;;;;;;6.65;3.00;;;;;;;;;;5093258;28;20481;-76
2021/01/14 06:58:09;;;;;;;11.20;3.50;;;;;;;;;;5093189;28;20097;-76
2021/01/14 07:00:39;;;;;;;7.53;3.30;;;;;;;;;;5091991;28;20473;-76
2021/01/14 07:03:18;;;;;;;15.95;3.58;;;;;;;;;;5093443;28;20043;-76
2021/01/14 07:05:55;;;;;;;7.60;3.30;;;;;;;;;;5094757;28;20043;-75
2021/01/14 07:08:40;;;;;;;6.95;3.10;;;;;;;;;;5094276;28;20111;-74
2021/01/14 07:11:16;;;;;;;6.60;3.22;;;;;;;;;;5092883;28;20032;-77
2021/01/14 07:13:44;;;;;;;12.88;3.97;;;;;;;;;;5092172;28;20482;-75
2021/01/14 07:16:11;;;;;;;10.75;3.92;;;;;;;;;;5093349;28;20039;-75
2021/01/14 07:18:38;;;;;;;6.25;2.70;;;;;;;;;;5093173;28;20044;-75
2021/01/14 07:21:33;;;;;;;12.57;3.25;;;;;;;;;;5093216;28;20171;-75
2021/01/14 07:24:02;;;;;;;8.15;3.03;;;;;;;;;;5093446;28;20461;-79
2021/01/14 07:26:29;;;;;;;7.43;3.22;;;;;;;;;;5093522;28;20039;-75
2021/01/14 07:28:55;;;;;;;9.45;3.35;;;;;;;;;;5093045;28;20082;-76
2021/01/14 07:31:27;;;;;;;8.23;3.25;;;;;;;;;;5093205;28;20031;-76
2021/01/14 07:33:54;;;;;;;6.65;3.58;;;;;;;;;;5093083;28;20078;-75
2021/01/14 07:36:25;;;;;;;7.18;3.45;;;;;;;;;;5092972;28;20040;-76
2021/01/14 07:38:53;;;;;;;5.15;2.83;;;;;;;;;;5093045;28;20032;-77
2021/01/14 07:41:18;;;;;;;8.00;3.22;;;;;;;;;;5091705;28;20165;-77
2021/01/14 07:43:45;;;;;;;8.05;2.88;;;;;;;;;;5092742;28;20066;-77
2021/01/14 07:46:25;;;;;;;8.40;3.60;;;;;;;;;;5092972;28;20036;-76
2021/01/14 07:48:53;;;;;;;8.30;3.42;;;;;;;;;;5093183;28;20122;-77
2021/01/14 07:51:19;;;;;;;8.82;4.18;;;;;;;;;;5093724;28;20036;-77
2021/01/14 07:54:07;;;;;;;7.68;3.08;;;;;;;;;;5094075;28;20067;-77
2021/01/14 07:56:45;;;;;;;8.65;3.22;;;;;;;;;;5094538;28;20549;-77
2021/01/14 07:59:11;;;;;;;6.88;3.78;;;;;;;;;;5094464;28;20040;-77
2021/01/14 08:02:08;;;;;;;9.73;3.40;;;;;;;;;;5093327;28;20039;-78
2021/01/14 08:05:03;;;;;;;14.35;3.80;;;;;;;;;;5096414;28;20071;-77
2021/01/14 08:07:32;;;;;;;8.07;3.78;;;;;;;;;;5094670;28;20502;-77
2021/01/14 08:09:57;;;;;;;6.28;3.40;;;;;;;;;;5096569;28;20032;-77
2021/01/14 08:12:28;;;;;;;8.32;4.20;;;;;;;;;;5079379;28;20115;-76
2021/01/14 08:14:54;;;;;;;10.68;4.65;;;;;;;;;;5076450;28;20037;-77
2021/01/14 08:17:21;;;;;;;6.80;3.30;;;;;;;;;;5076039;28;20036;-77
2021/01/14 08:19:47;;;;;;;7.75;3.97;;;;;;;;;;5074881;28;20458;-77
2021/01/14 08:22:13;;;;;;;8.00;4.00;;;;;;;;;;5076246;28;20480;-76
2021/01/14 08:24:56;;;;;;;4.72;3.22;;;;;;;;;;5075961;28;20055;-76
2021/01/14 08:27:21;;;;;;;9.43;3.95;;;;;;;;;;5076019;28;20024;-77
2021/01/14 08:29:50;;;;;;;11.35;4.45;;;;;;;;;;5075808;28;20474;-77
2021/01/14 08:32:32;;;;;;;7.75;3.92;;;;;;;;;;5074380;28;20035;-78
2021/01/14 08:34:59;;;;;;;9.15;4.38;;;;;;;;;;5075708;28;20040;-76
2021/01/14 08:37:35;;;;;;;13.93;4.45;;;;;;;;;;5075935;28;20038;-76
2021/01/14 08:40:05;;;;;;;10.30;3.67;;;;;;;;;;5075554;28;20035;-78
2021/01/14 08:42:37;;;;;;;7.78;3.80;;;;;;;;;;5093728;28;20123;-77
2021/01/14 08:45:09;;;;;;;7.88;3.78;;;;;;;;;;5095520;28;20143;-77
2021/01/14 08:47:59;;;;;;;11.63;4.43;;;;;;;;;;5095637;28;20458;-77
2021/01/14 08:50:43;;;;;;;9.38;3.92;;;;;;;;;;5094175;28;20040;-76
2021/01/14 08:53:18;;;;;;;7.53;4.03;;;;;;;;;;5095634;28;20024;-77
2021/01/14 08:55:43;;;;;;;7.95;4.88;;;;;;;;;;5095365;28;20028;-76
2021/01/14 08:58:09;;;;;;;7.72;3.92;;;;;;;;;;5095555;28;20043;-77
2021/01/14 09:00:39;;;;;;;12.27;4.40;;;;;;;;;;5095356;28;20047;-76
2021/01/14 09:03:05;;;;;;;8.50;3.80;;;;;;;;;;5095933;28;20072;-75
2021/01/14 09:05:31;;;;;;;8.65;4.15;;;;;;;;;;5094825;28;20526;-76
2021/01/14 09:08:08;;;;;;;7.22;4.35;;;;;;;;;;5095080;28;20035;-76
2021/01/14 09:10:45;;;;;;;13.93;4.45;;;;;;;;;;5094307;28;20038;-76
2021/01/14 09:13:13;;;;;;;7.47;3.95;;;;;;;;;;5095545;28;20036;-75
2021/01/14 09:15:39;;;;;;;10.88;4.32;;;;;;;;;;5095291;28;20062;-75
2021/01/14 09:18:07;;;;;;;8.65;3.70;;;;;;;;;;5095417;28;20046;-76
2021/01/14 09:20:32;;;;;;;9.60;3.60;;;;;;;;;;5094846;28;20127;-76
2021/01/14 09:23:18;;;;;;;7.15;3.40;;;;;;;;;;5095921;28;20028;-76
2021/01/14 09:25:48;;;;;;;8.00;3.40;;;;;;;;;;5094346;28;20170;-75
2021/01/14 09:28:14;;;;;;;7.53;4.38;;;;;;;;;;5095903;28;20039;-76
2021/01/14 09:30:41;;;;;;;8.75;3.55;;;;;;;;;;5095263;28;20585;-76
2021/01/14 09:33:06;;;;;;;10.60;3.70;;;;;;;;;;5095546;28;20559;-75
2021/01/14 09:35:32;;;;;;;6.25;4.22;;;;;;;;;;5095770;28;20032;-76
2021/01/14 09:37:58;;;;;;;9.55;3.70;;;;;;;;;;5094367;28;20410;-76
2021/01/14 09:40:24;;;;;;;8.00;3.83;;;;;;;;;;5094005;28;20122;-76
2021/01/14 09:42:50;;;;;;;5.70;3.22;;;;;;;;;;5095588;28;20127;-76
2021/01/14 09:45:21;;;;;;;6.35;3.33;;;;;;;;;;5096468;28;20111;-74
2021/01/14 09:47:51;;;;;;;6.68;3.38;;;;;;;;;;5097081;28;20119;-75
2021/01/14 09:50:17;;;;;;;9.35;4.03;;;;;;;;;;5097057;28;20554;-75
2021/01/14 09:52:43;;;;;;;6.63;3.20;;;;;;;;;;5097357;28;20047;-75
2021/01/14 09:55:12;;;;;;;6.30;3.60;;;;;;;;;;5097238;28;20504;-75
2021/01/14 09:57:40;;;;;;;8.60;3.45;;;;;;;;;;5095406;28;20537;-74
2021/01/14 10:00:06;;;;;;;9.73;3.47;;;;;;;;;;5094177;28;20039;-78
2021/01/14 10:02:35;;;;;;;6.30;3.80;;;;;;;;;;5094171;28;20024;-76
2021/01/14 10:05:21;;;;;;;7.40;3.33;;;;;;;;;;5093132;28;20039;-75
2021/01/14 10:07:49;;;;;;;6.55;3.30;;;;;;;;;;5093956;28;20036;-75
2021/01/14 10:10:15;;;;;;;6.22;3.50;;;;;;;;;;5093519;28;20036;-73
2021/01/14 10:12:40;;;;;;;6.60;3.28;;;;;;;;;;5094025;28;20035;-75
2021/01/14 10:15:14;;;;;;;5.85;3.30;;;;;;;;;;5093997;28;20385;-72
2021/01/14 10:17:40;;;;;;;9.48;4.13;;;;;;;;;;5093812;28;20032;-74
2021/01/14 10:20:12;;;;;;;7.60;4.18;;;;;;;;;;5093765;28;20031;-73
2021/01/14 10:22:48;;;;;;;7.53;3.80;;;;;;;;;;5093766;28;20134;-74
2021/01/14 10:25:13;;;;;;;;;;;;;;;;;;5093535;28;20454;-73
2021/01/14 10:27:39;;;;;;;7.20;3.87;;;;;;;;;;5094008;28;19912;-74
2021/01/14 10:30:43;;;;;;;7.28;4.13;;;;;;;;;;5093713;28;20028;-76
2021/01/14 10:33:09;;;;;;;7.22;3.90;;;;;;;;;;5053102;28;20047;-76
2021/01/14 10:35:36;;;;;;;6.13;3.25;;;;;;;;;;5092296;28;20036;-75
2021/01/14 10:38:11;;;;;;;7.20;3.50;;;;;;;;;;5093577;28;20036;-75
2021/01/14 10:40:45;;;;;;;6.20;2.80;;;;;;;;;;5093890;28;20373;-76
2021/01/14 10:43:11;;;;;;;5.07;3.38;;;;;;;;;;5093403;28;20040;-76
2021/01/14 10:45:38;;;;;;;7.68;3.80;;;;;;;;;;5093010;28;20044;-78
2021/01/14 10:48:14;;;;;;;5.18;3.63;;;;;;;;;;5092391;28;20141;-76
2021/01/14 10:50:47;;;;;;;;;;;;;;;;;;5093814;28;20036;-75
2021/01/14 10:53:23;;;;;;;7.40;3.50;;;;;;;;;;5093450;28;19916;-75
2021/01/14 10:56:03;;;;;;;6.30;3.40;;;;;;;;;;5093312;28;20039;-76
2021/01/14 10:58:28;;;;;;;7.47;3.75;;;;;;;;;;5093335;28;20132;-75
2021/01/14 11:00:55;;;;;;;6.63;3.00;;;;;;;;;;5093484;28;20403;-75
2021/01/14 11:03:25;;;;;;;5.28;3.20;;;;;;;;;;5093334;28;20032;-74
2021/01/14 11:05:52;;;;;;;7.15;3.17;;;;;;;;;;5094861;28;20040;-77
2021/01/14 11:08:37;;;;;;;6.85;3.80;;;;;;;;;;5094022;28;20481;-74
2021/01/14 11:11:04;;;;;;;5.35;3.22;;;;;;;;;;5092859;28;20077;-74
2021/01/14 11:13:40;;;;;;;6.80;3.80;;;;;;;;;;5092995;28;20119;-75
2021/01/14 11:16:06;;;;;;;7.40;3.90;;;;;;;;;;5093236;28;20480;-74
2021/01/14 11:18:40;;;;;;;4.30;2.85;;;;;;;;;;5093011;28;20044;-75
2021/01/14 11:21:05;;;;;;;6.75;3.42;;;;;;;;;;5092816;28;20347;-76
2021/01/14 11:23:31;;;;;;;5.50;3.25;;;;;;;;;;5094326;28;20036;-75
2021/01/14 11:25:56;;;;;;;6.95;3.65;;;;;;;;;;5091305;28;20123;-74
2021/01/14 11:28:21;;;;;;;5.07;2.97;;;;;;;;;;5091896;28;20063;-74
2021/01/14 11:30:47;;;;;;;5.95;3.35;;;;;;;;;;5092826;28;20070;-75
2021/01/14 11:33:12;;;;;;;6.20;3.42;;;;;;;;;;5093232;28;20066;-75
2021/01/14 11:35:37;;;;;;;7.88;3.95;;;;;;;;;;5093772;28;20114;-76
2021/01/14 11:38:03;;;;;;;5.90;3.35;;;;;;;;;;5095508;28;20100;-74
2021/01/14 11:40:28;;;;;;;4.25;2.90;;;;;;;;;;5096633;28;20122;-76
2021/01/14 11:42:54;;;;;;;5.18;3.50;;;;;;;;;;5096561;28;20039;-76
2021/01/14 11:45:19;;;;;;;5.95;3.15;;;;;;;;;;5096686;28;20051;-72
2021/01/14 11:47:44;;;;;;;4.63;3.28;;;;;;;;;;5096783;28;20032;-72
2021/01/14 11:50:10;;;;;;;5.15;3.63;;;;;;;;;;5096537;28;20066;-72
2021/01/14 11:52:35;;;;;;;6.30;3.60;;;;;;;;;;5096713;28;20032;-72
2021/01/14 11:55:01;;;;;;;5.65;3.50;;;;;;;;;;5096737;28;20043;-73
2021/01/14 11:57:28;;;;;;;8.63;3.88;;;;;;;;;;5096428;28;20062;-73
2021/01/14 11:59:53;;;;;;;5.55;3.58;;;;;;;;;;5095188;28;20466;-73
2021/01/14 12:02:18;;;;;;;6.82;3.42;;;;;;;;;;5096553;28;20117;-72
2021/01/14 12:04:47;;;;;;;6.72;3.60;;;;;;;;;;5096489;28;20032;-76
2021/01/14 12:07:13;;;;;;;4.78;3.25;;;;;;;;;;5096352;28;20448;-74
2021/01/14 12:09:39;;;;;;;5.90;4.05;;;;;;;;;;5096520;28;20089;-74
2021/01/14 12:12:05;;;;;;;8.73;4.28;;;;;;;;;;5096045;28;20032;-74
2021/01/14 12:14:30;;;;;;;6.32;3.88;;;;;;;;;;5096421;28;20039;-74
2021/01/14 12:16:56;;;;;;;8.35;4.53;;;;;;;;;;5095985;28;20028;-74
2021/01/14 12:19:21;;;;;;;8.57;4.22;;;;;;;;;;5095952;28;20443;-74
2021/01/14 12:21:59;;;;;;;6.90;4.20;;;;;;;;;;5096211;28;20071;-74
2021/01/14 12:24:24;;;;;;;6.63;4.13;;;;;;;;;;5094896;28;20526;-74
2021/01/14 12:26:49;;;;;;;7.20;3.53;;;;;;;;;;5095249;28;20035;-74
2021/01/14 12:29:15;;;;;;;7.28;4.22;;;;;;;;;;5095860;28;20047;-74
2021/01/14 12:31:40;;;;;;;6.68;3.85;;;;;;;;;;5095972;28;20059;-74
2021/01/14 12:34:05;;;;;;;6.38;3.42;;;;;;;;;;5095871;28;20449;-74
2021/01/14 12:36:31;;;;;;;7.07;4.07;;;;;;;;;;5095849;28;20397;-74
2021/01/14 12:38:56;;;;;;;6.45;3.72;;;;;;;;;;5095813;28;20595;-74
2021/01/14 12:41:28;;;;;;;7.05;3.95;;;;;;;;;;5095537;28;20048;-74
2021/01/14 12:43:54;;;;;;;6.20;3.22;;;;;;;;;;5095427;28;20146;-74
2021/01/14 12:46:19;;;;;;;8.98;4.25;;;;;;;;;;5095599;28;20123;-74
2021/01/14 12:48:46;;;;;;;6.63;3.88;;;;;;;;;;5094596;28;20032;-74
2021/01/14 12:51:12;;;;;;;6.97;3.58;;;;;;;;;;5095274;28;20044;-73
2021/01/14 12:53:38;;;;;;;7.93;4.13;;;;;;;;;;5094642;28;20035;-74
2021/01/14 12:56:04;;;;;;;6.00;4.03;;;;;;;;;;5095232;28;20042;-74
2021/01/14 12:58:31;;;;;;;8.52;4.07;;;;;;;;;;5095525;28;20381;-74
2021/01/14 13:00:57;;;;;;;5.68;4.03;;;;;;;;;;5095267;28;20120;-74
2021/01/14 13:03:22;;;;;;;6.80;3.80;;;;;;;;;;5095269;28;20126;-74
2021/01/14 13:05:47;;;;;;;6.57;3.90;;;;;;;;;;5094028;28;20036;-74
2021/01/14 13:08:13;;;;;;;8.88;5.25;;;;;;;;;;5095361;28;20068;-74
2021/01/14 13:10:38;;;;;;;5.80;4.03;;;;;;;;;;5094764;28;20082;-74
2021/01/14 13:13:03;;;;;;;6.57;4.22;;;;;;;;;;5095402;28;20100;-74
2021/01/14 13:15:29;;;;;;;5.95;4.43;;;;;;;;;;5095010;28;20470;-74
2021/01/14 13:17:54;;;;;;;5.60;3.65;;;;;;;;;;5094868;28;20102;-74
2021/01/14 13:20:19;;;;;;;5.53;4.15;;;;;;;;;;5095021;28;20032;-74
2021/01/14 13:22:45;;;;;;;6.88;4.20;;;;;;;;;;5095126;28;20040;-74
2021/01/14 13:25:11;;;;;;;6.68;4.45;;;;;;;;;;5094956;28;20122;-74
2021/01/14 13:27:36;;;;;;;7.03;4.50;;;;;;;;;;5094147;28;20031;-74
2021/01/14 13:30:02;;;;;;;8.10;4.35;;;;;;;;;;5093439;28;20032;-74
2021/01/14 13:32:28;;;;;;;7.97;4.78;;;;;;;;;;5094587;28;20075;-74
2021/01/14 13:34:53;;;;;;;7.22;4.18;;;;;;;;;;5094721;28;20070;-74
2021/01/14 13:37:18;;;;;;;5.90;4.05;;;;;;;;;;5093214;28;20126;-74
2021/01/14 13:39:44;;;;;;;10.73;6.32;;;;;;;;;;5094724;28;20028;-74
2021/01/14 13:42:11;;;;;;;6.75;5.03;;;;;;;;;;5094363;28;20471;-74
2021/01/14 13:44:36;;;;;;;7.55;5.28;;;;;;;;;;5094551;28;20383;-74
2021/01/14 13:47:03;;;;;;;6.97;4.60;;;;;;;;;;5094288;28;20044;-74
2021/01/14 13:49:28;;;;;;;8.35;4.35;;;;;;;;;;5094386;28;20080;-74
2021/01/14 13:51:54;;;;;;;8.57;4.88;;;;;;;;;;5094465;28;20066;-74
2021/01/14 13:54:19;;;;;;;6.38;3.85;;;;;;;;;;5094169;28;20077;-74
2021/01/14 13:56:45;;;;;;;6.18;3.97;;;;;;;;;;5094040;28;20374;-74
2021/01/14 13:59:10;;;;;;;6.22;3.78;;;;;;;;;;5093232;28;20399;-74
2021/01/14 14:01:36;;;;;;;7.18;4.38;;;;;;;;;;5094014;28;20043;-74
2021/01/14 14:04:02;;;;;;;6.93;3.95;;;;;;;;;;5094185;28;20376;-74
2021/01/14 14:06:32;;;;;;;7.28;4.32;;;;;;;;;;5093994;28;20347;-74
2021/01/14 14:08:58;;;;;;;12.90;6.90;;;;;;;;;;5093992;28;20035;-74
2021/01/14 14:11:24;;;;;;;7.47;4.63;;;;;;;;;;5091643;28;20039;-74
2021/01/14 14:13:53;;;;;;;8.40;4.78;;;;;;;;;;5082499;28;20028;-74
2021/01/14 14:16:19;;;;;;;7.63;5.15;;;;;;;;;;5073308;28;20045;-74
2021/01/14 14:18:45;;;;;;;8.73;4.82;;;;;;;;;;5072301;28;20040;-74
2021/01/14 14:21:14;;;;;;;9.93;5.05;;;;;;;;;;5066044;28;20059;-74
2021/01/14 14:23:40;;;;;;;7.75;5.20;;;;;;;;;;5073812;28;20115;-74
2021/01/14 14:26:05;;;;;;;9.80;6.25;;;;;;;;;;5073142;28;20086;-74
2021/01/14 14:28:31;;;;;;;9.15;6.00;;;;;;;;;;5073402;28;20040;-75
2021/01/14 14:30:56;;;;;;;7.93;5.38;;;;;;;;;;5073184;28;20028;-74
2021/01/14 14:33:21;;;;;;;7.65;4.05;;;;;;;;;;5076124;28;20033;-75
2021/01/14 14:35:47;;;;;;;6.90;4.45;;;;;;;;;;5073248;28;20078;-74
2021/01/14 14:38:12;;;;;;;6.95;5.05;;;;;;;;;;5073477;28;20032;-75
2021/01/14 14:40:38;;;;;;;20.30;9.85;;;;;;;;;;5075755;28;20035;-75
2021/01/14 14:43:03;;;;;;;15.02;8.70;;;;;;;;;;5093264;28;20040;-75
2021/01/14 14:45:28;;;;;;;11.05;7.40;;;;;;;;;;5093367;28;20039;-75
2021/01/14 14:47:54;;;;;;;10.60;6.75;;;;;;;;;;5093537;28;20035;-75
2021/01/14 14:50:20;;;;;;;10.75;5.63;;;;;;;;;;5093319;28;20062;-75
2021/01/14 14:52:49;;;;;;;8.90;4.65;;;;;;;;;;5093664;28;20056;-75